Time;durP1;ratioP1;P1;durP2;ratioP2;P2;SDS_P1;SDS_P2;PMS_P1;PMS_P2;Temp;Humidity;BMP_temperature;BMP_pressure;BME280_temperature;BME280_humidity;BME280_pressure;Samples;Min_cycle;Max_cycle;Signal;HPM_P1;HPM_P2
2021/07/26 00:00:59;;;;;;;;;;;18.50;99.90;;;;;;5068405;28;19939;-87
2021/07/26 00:03:25;;;;;;;;;;;18.50;99.90;;;;;;5069233;28;20309;-87
2021/07/26 00:05:55;;;;;;;;;;;18.50;99.90;;;;;;5068066;28;20509;-88
2021/07/26 00:08:21;;;;;;;;;;;18.50;99.90;;;;;;5059580;28;20003;-88
2021/07/26 00:10:47;;;;;;;;;;;18.60;99.90;;;;;;5064255;28;19932;-88
2021/07/26 00:13:12;;;;;;;;;;;18.60;99.90;;;;;;5068176;28;19924;-88
2021/07/26 00:15:38;;;;;;;;;;;18.60;99.90;;;;;;5052231;28;20299;-87
2021/07/26 00:18:03;;;;;;;;;;;18.50;99.90;;;;;;5068230;28;20320;-89
2021/07/26 00:20:29;;;;;;;;;;;18.50;99.90;;;;;;5069595;28;20268;-88
2021/07/26 00:22:55;;;;;;;;;;;18.50;99.90;;;;;;5068756;28;19932;-89
2021/07/26 00:25:22;;;;;;;;;;;18.50;99.90;;;;;;5068356;28;19932;-87
2021/07/26 00:27:47;;;;;;;;;;;18.50;99.90;;;;;;5068944;28;20279;-87
2021/07/26 00:30:13;;;;;;;;;;;18.40;99.90;;;;;;5084732;28;19928;-87
2021/07/26 00:32:39;;;;;;;;;;;18.40;99.90;;;;;;5069363;28;20288;-87
2021/07/26 00:35:05;;;;;;;;;;;18.40;99.90;;;;;;5068782;28;20358;-88
2021/07/26 00:37:30;;;;;;;;;;;18.30;99.90;;;;;;5068914;28;19932;-88
2021/07/26 00:39:57;;;;;;;;;;;18.30;99.90;;;;;;5083993;28;20464;-88
2021/07/26 00:42:23;;;;;;;;;;;18.20;99.90;;;;;;5085193;28;20327;-87
2021/07/26 00:44:48;;;;;;;;;;;18.10;99.90;;;;;;5068804;28;19928;-87
2021/07/26 00:47:14;;;;;;;;;;;18.10;99.90;;;;;;5067762;28;19928;-87
2021/07/26 00:49:40;;;;;;;;;;;18.00;99.90;;;;;;5067969;28;19928;-87
2021/07/26 00:52:06;;;;;;;;;;;18.00;99.90;;;;;;5068607;28;20026;-87
2021/07/26 00:54:36;;;;;;;;;;;18.00;99.90;;;;;;5069858;28;20026;-88
2021/07/26 00:57:06;;;;;;;;;;;17.90;99.90;;;;;;5068896;28;19932;-87
2021/07/26 00:59:32;;;;;;;;;;;17.90;99.90;;;;;;5061268;28;19976;-87
2021/07/26 01:01:58;;;;;;;;;;;17.80;99.90;;;;;;5067316;28;19956;-88
2021/07/26 01:04:24;;;;;;;;;;;17.80;99.90;;;;;;5085564;28;19924;-87
2021/07/26 01:06:49;;;;;;;;;;;17.70;99.90;;;;;;5068565;28;19924;-88
2021/07/26 01:09:16;;;;;;;;;;;17.70;99.90;;;;;;5068459;28;20463;-88
2021/07/26 01:11:42;;;;;;;;;;;17.70;99.90;;;;;;5068421;28;19935;-87
2021/07/26 01:14:08;;;;;;;;;;;17.60;99.90;;;;;;5066252;28;19971;-87
2021/07/26 01:16:34;;;;;;;;;;;17.60;99.90;;;;;;5057330;28;19972;-88
2021/07/26 01:19:01;;;;;;;;;;;17.60;99.90;;;;;;5068842;28;20390;-88
2021/07/26 01:21:27;;;;;;;;;;;17.60;99.90;;;;;;5070048;28;19931;-88
2021/07/26 01:23:52;;;;;;;;;;;17.50;99.90;;;;;;5072210;28;20372;-87
2021/07/26 01:26:23;;;;;;;;;;;17.50;99.90;;;;;;5065992;28;19924;-87
2021/07/26 01:28:49;;;;;;;;;;;17.50;99.90;;;;;;5073106;28;19967;-88
2021/07/26 01:31:16;;;;;;;;;;;17.40;99.90;;;;;;5072960;28;19920;-87
2021/07/26 01:33:42;;;;;;;;;;;17.40;99.90;;;;;;5089234;28;20408;-87
2021/07/26 01:36:08;;;;;;;;;;;17.30;99.90;;;;;;5049734;28;20363;-88
2021/07/26 01:38:34;;;;;;;;;;;17.30;99.90;;;;;;5072338;28;19925;-89
2021/07/26 01:41:11;;;;;;;;;;;17.30;99.90;;;;;;5072741;28;19928;-87
2021/07/26 01:43:39;;;;;;;;;;;17.30;99.90;;;;;;5072080;28;19935;-88
2021/07/26 01:46:04;;;;;;;;;;;17.20;99.90;;;;;;5062980;28;19933;-88
2021/07/26 01:48:37;;;;;;;;;;;17.20;99.90;;;;;;5071503;28;19931;-87
2021/07/26 01:51:10;;;;;;;;;;;17.10;99.90;;;;;;5072563;28;19925;-87
2021/07/26 01:53:36;;;;;;;;;;;17.10;99.90;;;;;;5071293;28;19929;-87
2021/07/26 01:56:02;;;;;;;;;;;17.10;99.90;;;;;;5085958;28;20014;-87
2021/07/26 01:58:28;;;;;;;;;;;17.00;99.90;;;;;;5071636;28;19928;-87
2021/07/26 02:00:54;;;;;;;;;;;16.90;99.90;;;;;;5073411;28;19924;-88
2021/07/26 02:03:19;;;;;;;;;;;16.90;99.90;;;;;;5087636;28;19975;-87
2021/07/26 02:05:45;;;;;;;;;;;16.80;99.90;;;;;;5072419;28;19924;-88
2021/07/26 02:08:11;;;;;;;;;;;16.70;99.90;;;;;;5063044;28;20275;-87
2021/07/26 02:10:37;;;;;;;;;;;16.80;99.90;;;;;;5087552;28;19932;-87
2021/07/26 02:13:04;;;;;;;;;;;16.80;99.90;;;;;;5068522;28;19934;-87
2021/07/26 02:15:30;;;;;;;;;;;16.70;99.90;;;;;;5071169;28;19924;-87
2021/07/26 02:17:56;;;;;;;;;;;16.60;99.90;;;;;;5072333;28;19925;-87
2021/07/26 02:20:21;;;;;;;;;;;16.60;99.90;;;;;;5051404;28;20623;-86
2021/07/26 02:22:47;;;;;;;;;;;16.50;99.90;;;;;;5069021;28;20368;-87
2021/07/26 02:25:16;;;;;;;;;;;16.50;99.90;;;;;;5071549;28;19978;-87
2021/07/26 02:27:44;;;;;;;;;;;16.50;99.90;;;;;;5072059;28;19985;-87
2021/07/26 02:30:09;;;;;;;;;;;16.40;99.90;;;;;;5071464;28;19933;-86
2021/07/26 02:32:35;;;;;;;;;;;16.40;99.90;;;;;;5087466;28;19924;-87
2021/07/26 02:35:01;;;;;;;;;;;16.30;99.90;;;;;;5069481;28;20027;-87
2021/07/26 02:37:27;;;;;;;;;;;16.30;99.90;;;;;;5070333;28;20015;-87
2021/07/26 02:39:53;;;;;;;;;;;16.30;99.90;;;;;;5069947;28;19939;-86
2021/07/26 02:42:18;;;;;;;;;;;16.30;99.90;;;;;;5070806;28;20630;-86
2021/07/26 02:44:44;;;;;;;;;;;16.20;99.90;;;;;;5062790;28;20811;-84
2021/07/26 02:47:10;;;;;;;;;;;16.20;99.90;;;;;;5070020;28;19925;-85
2021/07/26 02:49:36;;;;;;;;;;;16.20;99.90;;;;;;5071413;28;19939;-85
2021/07/26 02:52:01;;;;;;;;;;;16.20;99.90;;;;;;5052188;28;20292;-87
2021/07/26 02:54:27;;;;;;;;;;;16.20;99.90;;;;;;5070861;28;20372;-86
2021/07/26 02:56:53;;;;;;;;;;;16.10;99.90;;;;;;5071163;28;19932;-86
2021/07/26 02:59:19;;;;;;;;;;;16.00;99.90;;;;;;5069940;28;20015;-87
2021/07/26 03:01:44;;;;;;;;;;;16.00;99.90;;;;;;5071998;28;19939;-86
2021/07/26 03:04:11;;;;;;;;;;;16.00;99.90;;;;;;5083892;28;19981;-88
2021/07/26 03:06:37;;;;;;;;;;;16.00;99.90;;;;;;5086886;28;19932;-87
2021/07/26 03:09:03;;;;;;;;;;;16.00;99.90;;;;;;5069000;28;19967;-89
2021/07/26 03:11:29;;;;;;;;;;;16.00;99.90;;;;;;5069996;28;19934;-86
2021/07/26 03:13:55;;;;;;;;;;;16.00;99.90;;;;;;5069945;28;19929;-86
2021/07/26 03:16:21;;;;;;;;;;;16.00;99.90;;;;;;5058965;28;19920;-86
2021/07/26 03:18:47;;;;;;;;;;;16.00;99.90;;;;;;5070092;28;19947;-86
2021/07/26 03:21:13;;;;;;;;;;;16.00;99.90;;;;;;5069523;28;20455;-86
2021/07/26 03:23:39;;;;;;;;;;;16.00;99.90;;;;;;5069988;28;20007;-86
2021/07/26 03:26:06;;;;;;;;;;;15.90;99.90;;;;;;5070089;28;20018;-85
2021/07/26 03:28:32;;;;;;;;;;;15.90;99.90;;;;;;5070090;28;20396;-86
2021/07/26 03:30:58;;;;;;;;;;;15.90;99.90;;;;;;5068219;28;20024;-86
2021/07/26 03:33:24;;;;;;;;;;;15.90;99.90;;;;;;5069246;28;20035;-86
2021/07/26 03:35:49;;;;;;;;;;;15.90;99.90;;;;;;5069509;28;20380;-85
2021/07/26 03:38:15;;;;;;;;;;;15.90;99.90;;;;;;5056254;28;19924;-86
2021/07/26 03:40:40;;;;;;;;;;;15.90;99.90;;;;;;5070793;28;20436;-86
2021/07/26 03:43:06;;;;;;;;;;;15.90;99.90;;;;;;5085329;28;19924;-86
2021/07/26 03:45:32;;;;;;;;;;;16.00;99.90;;;;;;5062203;28;20819;-86
2021/07/26 03:47:59;;;;;;;;;;;16.00;99.90;;;;;;5086221;28;20469;-87
2021/07/26 03:50:25;;;;;;;;;;;16.10;99.90;;;;;;5069638;28;20049;-86
2021/07/26 03:52:55;;;;;;;;;;;16.10;99.90;;;;;;5071006;28;19931;-85
2021/07/26 03:55:22;;;;;;;;;;;16.10;99.90;;;;;;5062851;28;20346;-86
2021/07/26 03:57:48;;;;;;;;;;;16.10;99.90;;;;;;5069453;28;19924;-85
2021/07/26 04:00:16;;;;;;;;;;;16.20;99.90;;;;;;5068412;28;19970;-86
2021/07/26 04:02:42;;;;;;;;;;;16.20;99.90;;;;;;5069760;28;20023;-86
2021/07/26 04:05:14;;;;;;;;;;;16.20;99.90;;;;;;5067512;28;19924;-86
2021/07/26 04:07:41;;;;;;;;;;;16.20;99.90;;;;;;5070308;28;20027;-86
2021/07/26 04:10:09;;;;;;;;;;;16.20;99.90;;;;;;5069834;28;20300;-88
2021/07/26 04:12:36;;;;;;;;;;;16.20;99.90;;;;;;5070220;28;19933;-86
2021/07/26 04:15:08;;;;;;;;;;;16.20;99.90;;;;;;5070216;28;20300;-86
2021/07/26 04:17:35;;;;;;;;;;;16.20;99.90;;;;;;5068806;28;19935;-85
2021/07/26 04:20:16;;;;;;;;;;;16.20;99.90;;;;;;5064247;28;19931;-85
2021/07/26 04:22:42;;;;;;;;;;;16.20;99.90;;;;;;5064639;28;20023;-86
2021/07/26 04:25:08;;;;;;;;;;;16.20;99.90;;;;;;5085351;28;19935;-87
2021/07/26 04:27:35;;;;;;;;;;;16.20;99.90;;;;;;5068719;28;19985;-86
2021/07/26 04:30:06;;;;;;;;;;;16.20;99.90;;;;;;5057012;28;19929;-87
2021/07/26 04:32:40;;;;;;;;;;;16.20;99.90;;;;;;5070405;28;20388;-86
2021/07/26 04:35:09;;;;;;;;;;;16.20;99.90;;;;;;5063169;28;19951;-88
2021/07/26 04:37:35;;;;;;;;;;;16.30;99.90;;;;;;5062526;28;20015;-86
2021/07/26 04:40:00;;;;;;;;;;;16.30;99.90;;;;;;5068774;28;20834;-86
2021/07/26 04:42:26;;;;;;;;;;;16.30;99.90;;;;;;5069228;28;20065;-86
2021/07/26 04:44:52;;;;;;;;;;;16.40;99.90;;;;;;5068711;28;20553;-86
2021/07/26 04:47:18;;;;;;;;;;;16.40;99.90;;;;;;5084637;28;19935;-86
2021/07/26 04:49:43;;;;;;;;;;;16.40;99.90;;;;;;5085322;28;20352;-86
2021/07/26 04:52:09;;;;;;;;;;;16.40;99.90;;;;;;5085228;28;19928;-86
2021/07/26 04:54:36;;;;;;;;;;;16.40;99.90;;;;;;5068347;28;19925;-85
2021/07/26 04:57:01;;;;;;;;;;;16.50;99.90;;;;;;5073072;28;19928;-85
2021/07/26 04:59:29;;;;;;;;;;;16.50;99.90;;;;;;5072858;28;19948;-86
2021/07/26 05:01:54;;;;;;;;;;;16.60;99.90;;;;;;5092289;28;19978;-86
2021/07/26 05:04:20;;;;;;;;;;;16.60;99.90;;;;;;5091480;28;20019;-86
2021/07/26 05:06:46;;;;;;;;;;;16.60;99.90;;;;;;5075076;28;19959;-87
2021/07/26 05:09:12;;;;;;;;;;;16.70;99.90;;;;;;5050933;28;20388;-88
2021/07/26 05:11:40;;;;;;;;;;;16.80;99.90;;;;;;5091788;28;20019;-86
2021/07/26 05:14:07;;;;;;;;;;;16.90;99.90;;;;;;5092029;28;19963;-86
2021/07/26 05:16:34;;;;;;;;;;;17.00;99.90;;;;;;5074282;28;19931;-88
2021/07/26 05:19:00;;;;;;;;;;;17.00;99.90;;;;;;5092203;28;19957;-86
2021/07/26 05:21:25;;;;;;;;;;;17.10;99.90;;;;;;5075494;28;19928;-87
2021/07/26 05:23:51;;;;;;;;;;;17.10;99.90;;;;;;5074327;28;19924;-85
2021/07/26 05:26:17;;;;;;;;;;;17.20;99.90;;;;;;5073893;28;19928;-87
2021/07/26 05:28:42;;;;;;;;;;;17.20;99.90;;;;;;5074581;28;19928;-85
2021/07/26 05:31:08;;;;;;;;;;;17.30;99.90;;;;;;5075063;28;20384;-85
2021/07/26 05:33:34;;;;;;;;;;;17.40;99.90;;;;;;5074003;28;19935;-85
2021/07/26 05:35:59;;;;;;;;;;;17.50;99.90;;;;;;5074918;28;20280;-85
2021/07/26 05:38:25;;;;;;;;;;;17.50;99.90;;;;;;5068234;28;20383;-87
2021/07/26 05:40:50;;;;;;;;;;;17.60;99.90;;;;;;5074903;28;20403;-86
2021/07/26 05:43:16;;;;;;;;;;;17.70;99.90;;;;;;5074001;28;19947;-86
2021/07/26 05:45:42;;;;;;;;;;;17.80;99.90;;;;;;5075041;28;19971;-86
2021/07/26 05:48:07;;;;;;;;;;;17.80;99.90;;;;;;5074769;28;19924;-86
2021/07/26 05:50:33;;;;;;;;;;;17.90;99.90;;;;;;5073816;28;20383;-87
2021/07/26 05:53:03;;;;;;;;;;;17.90;99.90;;;;;;5064163;28;19974;-86
2021/07/26 05:55:30;;;;;;;;;;;18.00;99.90;;;;;;5074774;28;19931;-86
2021/07/26 05:57:57;;;;;;;;;;;18.10;99.90;;;;;;5074748;28;20399;-86
2021/07/26 06:00:35;;;;;;;;;;;18.10;99.90;;;;;;5074953;28;19974;-87
2021/07/26 06:03:01;;;;;;;;;;;18.20;99.90;;;;;;5072888;28;19928;-89
2021/07/26 06:05:27;;;;;;;;;;;18.20;99.90;;;;;;5090826;28;19931;-87
2021/07/26 06:07:53;;;;;;;;;;;18.20;99.90;;;;;;5054922;28;19929;-88
2021/07/26 06:10:19;;;;;;;;;;;18.30;99.90;;;;;;5069993;28;19932;-86
2021/07/26 06:12:45;;;;;;;;;;;18.40;99.90;;;;;;5051351;28;19929;-88
2021/07/26 06:15:11;;;;;;;;;;;18.40;99.90;;;;;;5065359;28;19924;-86
2021/07/26 06:17:37;;;;;;;;;;;18.40;99.90;;;;;;5055251;28;19924;-88
2021/07/26 06:20:03;;;;;;;;;;;18.50;99.90;;;;;;5072202;28;20039;-86
2021/07/26 06:22:30;;;;;;;;;;;18.60;99.90;;;;;;5071348;28;20457;-88
2021/07/26 06:24:55;;;;;;;;;;;18.60;99.90;;;;;;5086960;28;20015;-86
2021/07/26 06:27:21;;;;;;;;;;;18.60;99.90;;;;;;5065678;28;20018;-87
2021/07/26 06:29:48;;;;;;;;;;;18.70;99.90;;;;;;5071048;28;19924;-86
2021/07/26 06:32:14;;;;;;;;;;;18.80;99.90;;;;;;5051570;28;19928;-86
2021/07/26 06:34:40;;;;;;;;;;;18.80;99.90;;;;;;5081110;28;20418;-86
2021/07/26 06:37:07;;;;;;;;;;;18.90;99.90;;;;;;5070603;28;19983;-87
2021/07/26 06:39:32;;;;;;;;;;;18.90;99.90;;;;;;5069042;28;19928;-87
2021/07/26 06:41:58;;;;;;;;;;;19.00;99.90;;;;;;5069907;28;20403;-85
2021/07/26 06:44:24;;;;;;;;;;;19.00;99.90;;;;;;5069835;28;19959;-87
2021/07/26 06:46:49;;;;;;;;;;;19.00;99.90;;;;;;5087277;28;19963;-88
2021/07/26 06:49:15;;;;;;;;;;;19.00;99.90;;;;;;5070948;28;20386;-88
2021/07/26 06:51:41;;;;;;;;;;;19.00;99.90;;;;;;5053166;28;20384;-88
2021/07/26 06:54:07;;;;;;;;;;;19.00;99.90;;;;;;5064917;28;19971;-86
2021/07/26 06:56:32;;;;;;;;;;;19.10;99.90;;;;;;5071151;28;19932;-88
2021/07/26 06:58:58;;;;;;;;;;;19.20;99.90;;;;;;5070686;28;19936;-88
2021/07/26 07:01:24;;;;;;;;;;;19.20;99.90;;;;;;5074832;28;19932;-88
2021/07/26 07:03:49;;;;;;;;;;;19.20;99.90;;;;;;5069832;28;19929;-87
2021/07/26 07:06:16;;;;;;;;;;;19.30;99.90;;;;;;5072166;28;20372;-88
2021/07/26 07:08:42;;;;;;;;;;;19.30;99.90;;;;;;5066440;28;19926;-89
2021/07/26 07:11:09;;;;;;;;;;;19.40;99.90;;;;;;5068850;28;20352;-88
2021/07/26 07:13:35;;;;;;;;;;;19.50;99.90;;;;;;5052753;28;19969;-88
2021/07/26 07:16:02;;;;;;;;;;;19.60;99.90;;;;;;5070318;28;19928;-87
2021/07/26 07:18:28;;;;;;;;;;;19.70;99.90;;;;;;5069622;28;19990;-87
2021/07/26 07:20:53;;;;;;;;;;;19.80;99.90;;;;;;5069887;28;20375;-87
2021/07/26 07:23:19;;;;;;;;;;;19.80;99.90;;;;;;5085950;28;19971;-88
2021/07/26 07:25:45;;;;;;;;;;;19.90;99.90;;;;;;5070816;28;19939;-89
2021/07/26 07:28:10;;;;;;;;;;;20.00;99.90;;;;;;5050042;28;19925;-88
2021/07/26 07:30:36;;;;;;;;;;;20.10;99.90;;;;;;5065716;28;19924;-87
2021/07/26 07:33:02;;;;;;;;;;;20.20;99.90;;;;;;5085862;28;19936;-86
2021/07/26 07:35:28;;;;;;;;;;;20.20;99.90;;;;;;5067228;28;19930;-85
2021/07/26 07:37:54;;;;;;;;;;;20.30;99.90;;;;;;5068887;28;19924;-86
2021/07/26 07:40:22;;;;;;;;;;;20.40;99.90;;;;;;5066744;28;20371;-86
2021/07/26 07:42:48;;;;;;;;;;;20.40;99.90;;;;;;5069723;28;19932;-86
2021/07/26 07:45:14;;;;;;;;;;;20.50;99.90;;;;;;5050005;28;20261;-86
2021/07/26 07:47:40;;;;;;;;;;;20.60;99.90;;;;;;5072829;28;19925;-87
2021/07/26 07:50:07;;;;;;;;;;;20.80;99.90;;;;;;5065660;28;20027;-87
2021/07/26 07:52:34;;;;;;;;;;;20.80;99.90;;;;;;5067776;28;19932;-87
2021/07/26 07:55:00;;;;;;;;;;;20.90;99.90;;;;;;5082914;28;19947;-87
2021/07/26 07:57:28;;;;;;;;;;;21.00;99.90;;;;;;5068918;28;20403;-90
2021/07/26 07:59:54;;;;;;;;;;;21.10;99.90;;;;;;5066181;28;20011;-88
2021/07/26 08:02:20;;;;;;;;;;;21.20;99.90;;;;;;5070932;28;19924;-87
2021/07/26 08:04:46;;;;;;;;;;;21.20;99.90;;;;;;5069946;28;19951;-87
2021/07/26 08:07:11;;;;;;;;;;;21.30;99.90;;;;;;5070754;28;20392;-87
2021/07/26 08:09:37;;;;;;;;;;;21.40;99.90;;;;;;5067656;28;19935;-88
2021/07/26 08:12:03;;;;;;;;;;;21.50;99.90;;;;;;5061716;28;19963;-88
2021/07/26 08:14:29;;;;;;;;;;;21.60;99.90;;;;;;5057452;28;20395;-88
2021/07/26 08:17:00;;;;;;;;;;;21.70;99.90;;;;;;5066524;28;19924;-87
2021/07/26 08:19:25;;;;;;;;;;;21.80;99.90;;;;;;5068429;28;19964;-90
2021/07/26 08:21:51;;;;;;;;;;;21.90;99.90;;;;;;5063220;28;19971;-87
2021/07/26 08:24:16;;;;;;;;;;;22.00;99.90;;;;;;5070125;28;19932;-88
2021/07/26 08:26:42;;;;;;;;;;;22.10;99.90;;;;;;5068396;28;19928;-87
2021/07/26 08:29:08;;;;;;;;;;;22.20;99.90;;;;;;5068954;28;19924;-87
2021/07/26 08:31:34;;;;;;;;;;;22.30;99.90;;;;;;5068855;28;20364;-88
2021/07/26 08:33:59;;;;;;;;;;;22.40;99.90;;;;;;5069022;28;20318;-88
2021/07/26 08:36:25;;;;;;;;;;;22.50;99.90;;;;;;5070159;28;19935;-88
2021/07/26 08:38:50;;;;;;;;;;;22.60;99.90;;;;;;5067818;28;20040;-89
2021/07/26 08:41:16;;;;;;;;;;;22.80;99.90;;;;;;5066622;28;19925;-88
2021/07/26 08:43:42;;;;;;;;;;;22.90;99.90;;;;;;5066943;28;20443;-87
2021/07/26 08:46:08;;;;;;;;;;;23.10;99.90;;;;;;5066104;28;20299;-88
2021/07/26 08:48:35;;;;;;;;;;;23.30;99.90;;;;;;5061355;28;19925;-87
2021/07/26 08:51:01;;;;;;;;;;;23.40;99.90;;;;;;5085339;28;20030;-90
2021/07/26 08:53:27;;;;;;;;;;;23.50;99.90;;;;;;5069177;28;19924;-91
2021/07/26 08:55:54;;;;;;;;;;;23.50;99.90;;;;;;5067986;28;19932;-88
2021/07/26 08:58:20;;;;;;;;;;;23.60;99.90;;;;;;5068761;28;20010;-87
2021/07/26 09:00:45;;;;;;;;;;;23.70;99.90;;;;;;5067561;28;19932;-88
2021/07/26 09:03:11;;;;;;;;;;;23.70;99.90;;;;;;5070494;28;19939;-89
2021/07/26 09:05:37;;;;;;;;;;;23.80;99.90;;;;;;5084993;28;19968;-88
2021/07/26 09:08:04;;;;;;;;;;;23.80;99.90;;;;;;5070091;28;19978;-88
2021/07/26 09:10:35;;;;;;;;;;;23.80;99.90;;;;;;5069653;28;20014;-90
2021/07/26 09:13:01;;;;;;;;;;;23.80;99.90;;;;;;5084723;28;19934;-87
2021/07/26 09:15:34;;;;;;;;;;;23.90;99.90;;;;;;5069572;28;19924;-88
2021/07/26 09:18:02;;;;;;;;;;;23.90;99.90;;;;;;5069698;28;19931;-88
2021/07/26 09:20:28;;;;;;;;;;;24.00;99.90;;;;;;5068160;28;19925;-89
2021/07/26 09:22:56;;;;;;;;;;;24.00;99.90;;;;;;5066537;28;19935;-87
2021/07/26 09:25:23;;;;;;;;;;;24.10;99.90;;;;;;5068292;28;19924;-88
2021/07/26 09:27:58;;;;;;;;;;;24.10;99.90;;;;;;5068136;28;19932;-89
2021/07/26 09:30:24;;;;;;;;;;;24.20;99.90;;;;;;5069487;28;19931;-88
2021/07/26 09:32:50;;;;;;;;;;;24.30;99.90;;;;;;5068039;28;19939;-88
2021/07/26 09:35:15;;;;;;;;;;;24.40;99.90;;;;;;5068348;28;19959;-87
2021/07/26 09:37:41;;;;;;;;;;;24.40;99.90;;;;;;5067552;28;20012;-88
2021/07/26 09:40:20;;;;;;;;;;;24.50;99.90;;;;;;5047938;28;19925;-88
2021/07/26 09:42:46;;;;;;;;;;;24.60;99.90;;;;;;5068672;28;19928;-88
2021/07/26 09:45:18;;;;;;;;;;;24.80;99.90;;;;;;5072069;28;19931;-88
2021/07/26 09:47:44;;;;;;;;;;;24.80;99.90;;;;;;5064226;28;19931;-88
2021/07/26 09:50:11;;;;;;;;;;;24.90;99.90;;;;;;5069416;28;20304;-87
2021/07/26 09:52:37;;;;;;;;;;;24.90;99.90;;;;;;5070532;28;19936;-87
2021/07/26 09:55:03;;;;;;;;;;;25.00;99.90;;;;;;5071597;28;19928;-87
2021/07/26 09:57:28;;;;;;;;;;;25.10;99.90;;;;;;5064841;28;19935;-87
2021/07/26 09:59:55;;;;;;;;;;;25.20;99.90;;;;;;5071818;28;20516;-87
2021/07/26 10:02:23;;;;;;;;;;;25.30;99.90;;;;;;5068440;28;19982;-87
2021/07/26 10:04:49;;;;;;;;;;;25.40;99.90;;;;;;5070740;28;19929;-88
2021/07/26 10:07:16;;;;;;;;;;;25.50;99.90;;;;;;5071485;28;19932;-87
2021/07/26 10:09:42;;;;;;;;;;;25.50;99.90;;;;;;5067742;28;20012;-88
2021/07/26 10:12:14;;;;;;;;;;;25.50;99.90;;;;;;5071388;28;19925;-87
2021/07/26 10:14:45;;;;;;;;;;;25.70;99.90;;;;;;5087774;28;19932;-88
2021/07/26 10:17:10;;;;;;;;;;;25.90;99.90;;;;;;5072535;28;19932;-87
2021/07/26 10:19:37;;;;;;;;;;;26.00;99.90;;;;;;5070756;28;19934;-90
2021/07/26 10:22:03;;;;;;;;;;;26.10;99.90;;;;;;5086438;28;19928;-88
2021/07/26 10:24:44;;;;;;;;;;;26.20;99.90;;;;;;5067796;28;20423;-88
2021/07/26 10:27:10;;;;;;;;;;;26.20;99.90;;;;;;5069788;28;20491;-88
2021/07/26 10:29:50;;;;;;;;;;;26.30;99.90;;;;;;5041822;28;19982;-91
2021/07/26 10:32:31;;;;;;;;;;;26.30;99.90;;;;;;5063524;28;19924;-87
2021/07/26 10:34:57;;;;;;;;;;;26.20;99.90;;;;;;5068871;28;20061;-89
2021/07/26 10:37:41;;;;;;;;;;;26.10;99.90;;;;;;5071884;28;20442;-87
2021/07/26 10:40:18;;;;;;;;;;;26.10;99.90;;;;;;5070146;28;19928;-88
2021/07/26 10:42:44;;;;;;;;;;;26.20;99.90;;;;;;5066847;28;20013;-88
2021/07/26 10:45:10;;;;;;;;;;;26.30;99.90;;;;;;5067623;28;20055;-90
2021/07/26 10:47:35;;;;;;;;;;;26.30;99.90;;;;;;5057928;28;19931;-88
2021/07/26 10:50:08;;;;;;;;;;;26.40;99.90;;;;;;5073286;28;19928;-85
2021/07/26 10:52:37;;;;;;;;;;;26.40;99.90;;;;;;5070401;28;19925;-86
2021/07/26 10:55:04;;;;;;;;;;;26.40;99.90;;;;;;5083163;28;19968;-83
2021/07/26 10:57:49;;;;;;;;;;;26.40;99.90;;;;;;5069193;28;19939;-86
2021/07/26 11:00:16;;;;;;;;;;;26.40;99.90;;;;;;5067285;28;19932;-87
2021/07/26 11:02:43;;;;;;;;;;;26.50;99.90;;;;;;5067946;28;19925;-88
2021/07/26 11:05:27;;;;;;;;;;;26.60;99.90;;;;;;5070623;28;19929;-87
2021/07/26 11:08:12;;;;;;;;;;;26.60;99.90;;;;;;5080025;28;20023;-86
2021/07/26 11:10:45;;;;;;;;;;;26.60;99.90;;;;;;5068259;28;20437;-89
2021/07/26 11:13:11;;;;;;;;;;;26.50;99.90;;;;;;5069192;28;19924;-85
2021/07/26 11:15:43;;;;;;;;;;;26.30;99.90;;;;;;5067119;28;20027;-86
2021/07/26 11:18:19;;;;;;;;;;;26.10;99.90;;;;;;5086156;28;20459;-85
2021/07/26 11:21:05;;;;;;;;;;;26.00;99.90;;;;;;5069273;28;20311;-89
2021/07/26 11:23:38;;;;;;;;;;;25.90;99.90;;;;;;5066441;28;19925;-85
2021/07/26 11:26:04;;;;;;;;;;;26.00;99.90;;;;;;5043844;28;19935;-86
2021/07/26 11:28:36;;;;;;;;;;;26.10;99.90;;;;;;5071368;28;19925;-86
2021/07/26 11:31:02;;;;;;;;;;;26.10;99.90;;;;;;5069109;28;19920;-86
2021/07/26 11:33:28;;;;;;;;;;;26.20;99.90;;;;;;5070194;28;19939;-86
2021/07/26 11:35:54;;;;;;;;;;;26.40;99.90;;;;;;5068442;28;19970;-88
2021/07/26 11:38:20;;;;;;;;;;;26.60;99.90;;;;;;5069315;28;19925;-87
2021/07/26 11:40:45;;;;;;;;;;;27.00;99.90;;;;;;5065883;28;19925;-86
2021/07/26 11:43:11;;;;;;;;;;;26.80;99.90;;;;;;5068615;28;19994;-87
2021/07/26 11:45:37;;;;;;;;;;;26.90;99.90;;;;;;5069874;28;20380;-86
2021/07/26 11:48:06;;;;;;;;;;;26.80;99.90;;;;;;5078828;28;20019;-86
2021/07/26 11:50:39;;;;;;;;;;;26.70;99.90;;;;;;5069010;28;20179;-86
2021/07/26 11:53:05;;;;;;;;;;;26.80;99.90;;;;;;5066951;28;20017;-87
2021/07/26 11:55:34;;;;;;;;;;;27.10;99.90;;;;;;5064184;28;19966;-85
2021/07/26 11:58:09;;;;;;;;;;;27.40;99.90;;;;;;5062544;28;19924;-86
2021/07/26 12:00:38;;;;;;;;;;;27.70;99.90;;;;;;5062864;28;19924;-87
2021/07/26 12:03:04;;;;;;;;;;;27.60;99.90;;;;;;5068098;28;20021;-86
2021/07/26 12:05:31;;;;;;;;;;;27.90;99.90;;;;;;5067896;28;19925;-87
2021/07/26 12:08:00;;;;;;;;;;;28.10;99.90;;;;;;5067658;28;20367;-87
2021/07/26 12:10:33;;;;;;;;;;;28.30;99.90;;;;;;5069635;28;19944;-85
2021/07/26 12:13:16;;;;;;;;;;;28.20;99.90;;;;;;5069461;28;19932;-85
2021/07/26 12:15:42;;;;;;;;;;;28.10;99.90;;;;;;5069792;28;20379;-85
2021/07/26 12:18:14;;;;;;;;;;;28.10;99.40;;;;;;5068477;28;19975;-85
2021/07/26 12:20:39;;;;;;;;;;;28.20;99.90;;;;;;5061468;28;19932;-86
2021/07/26 12:23:15;;;;;;;;;;;28.70;99.90;;;;;;5068149;28;19920;-86
2021/07/26 12:25:45;;;;;;;;;;;28.90;99.90;;;;;;5069927;28;19928;-85
2021/07/26 12:28:11;;;;;;;;;;;29.00;99.90;;;;;;5070211;28;19924;-86
2021/07/26 12:30:37;;;;;;;;;;;29.20;99.60;;;;;;5068473;28;19929;-85
2021/07/26 12:33:03;;;;;;;;;;;29.30;98.50;;;;;;5068161;28;19956;-85
2021/07/26 12:35:29;;;;;;;;;;;29.30;98.20;;;;;;5069808;28;19974;-86
2021/07/26 12:38:05;;;;;;;;;;;28.90;98.10;;;;;;5051444;28;19924;-85
2021/07/26 12:40:35;;;;;;;;;;;29.30;98.20;;;;;;5068315;28;19925;-86
2021/07/26 12:43:04;;;;;;;;;;;29.40;97.80;;;;;;5054063;28;19924;-85
2021/07/26 12:45:29;;;;;;;;;;;29.30;97.10;;;;;;5064250;28;20304;-87
2021/07/26 12:47:56;;;;;;;;;;;28.90;97.70;;;;;;5074446;28;19931;-85
2021/07/26 12:50:22;;;;;;;;;;;28.90;98.00;;;;;;5065103;28;20379;-86
2021/07/26 12:52:48;;;;;;;;;;;28.70;97.60;;;;;;5065757;28;19928;-89
2021/07/26 12:55:14;;;;;;;;;;;28.90;97.30;;;;;;5064243;28;19935;-86
2021/07/26 12:57:40;;;;;;;;;;;29.20;97.90;;;;;;5061494;28;19925;-85
2021/07/26 13:00:06;;;;;;;;;;;29.50;97.30;;;;;;5064292;28;20596;-85
2021/07/26 13:02:32;;;;;;;;;;;29.60;97.10;;;;;;5046043;28;20273;-85
2021/07/26 13:04:58;;;;;;;;;;;29.60;95.50;;;;;;5064348;28;19940;-86
2021/07/26 13:07:24;;;;;;;;;;;29.80;97.70;;;;;;5064650;28;19978;-86
2021/07/26 13:09:50;;;;;;;;;;;30.20;95.20;;;;;;5040743;28;19933;-88
2021/07/26 13:12:15;;;;;;;;;;;30.00;95.20;;;;;;5047047;28;19932;-88
2021/07/26 13:14:41;;;;;;;;;;;30.50;94.70;;;;;;5065271;28;19928;-87
2021/07/26 13:17:07;;;;;;;;;;;31.00;94.30;;;;;;5065029;28;20007;-86
2021/07/26 13:19:32;;;;;;;;;;;31.30;92.90;;;;;;5069589;28;19936;-86
2021/07/26 13:21:58;;;;;;;;;;;31.60;94.10;;;;;;5065745;28;19931;-86
2021/07/26 13:24:24;;;;;;;;;;;31.80;93.60;;;;;;5068340;28;19931;-88
2021/07/26 13:26:50;;;;;;;;;;;32.20;92.50;;;;;;5068384;28;20418;-89
2021/07/26 13:29:15;;;;;;;;;;;32.10;91.70;;;;;;5084869;28;20513;-88
2021/07/26 13:31:41;;;;;;;;;;;32.20;91.40;;;;;;5063301;28;19986;-89
2021/07/26 13:34:08;;;;;;;;;;;32.40;90.50;;;;;;5082909;28;19977;-87
2021/07/26 13:36:35;;;;;;;;;;;32.80;90.40;;;;;;5083911;28;19952;-87
2021/07/26 13:39:01;;;;;;;;;;;32.80;89.50;;;;;;5067274;28;19929;-88
2021/07/26 13:41:27;;;;;;;;;;;32.00;89.20;;;;;;5070376;28;19932;-86
2021/07/26 13:43:53;;;;;;;;;;;32.00;90.00;;;;;;5061509;28;20457;-89
2021/07/26 13:46:18;;;;;;;;;;;32.30;89.30;;;;;;5071868;28;19962;-87
2021/07/26 13:48:44;;;;;;;;;;;32.60;90.00;;;;;;5072111;28;19931;-87
2021/07/26 13:51:10;;;;;;;;;;;32.50;88.60;;;;;;5069174;28;19924;-87
2021/07/26 13:53:36;;;;;;;;;;;32.10;89.10;;;;;;5069715;28;19954;-86
2021/07/26 13:56:01;;;;;;;;;;;32.00;89.30;;;;;;5071059;28;20374;-87
2021/07/26 13:58:27;;;;;;;;;;;32.30;89.80;;;;;;5085690;28;19958;-86
2021/07/26 14:00:56;;;;;;;;;;;32.60;87.90;;;;;;5070495;28;20384;-89
2021/07/26 14:03:22;;;;;;;;;;;32.90;87.50;;;;;;5067861;28;19935;-86
2021/07/26 14:05:47;;;;;;;;;;;33.10;87.30;;;;;;5072361;28;20380;-86
2021/07/26 14:08:15;;;;;;;;;;;33.20;86.00;;;;;;5086879;28;19928;-86
2021/07/26 14:10:41;;;;;;;;;;;33.40;85.20;;;;;;5072436;28;20442;-87
2021/07/26 14:13:06;;;;;;;;;;;33.50;83.70;;;;;;5068943;28;19925;-86
2021/07/26 14:15:33;;;;;;;;;;;33.60;84.50;;;;;;5072554;28;20003;-86